Cranwell, United Kingdom
Current Conditions -  °F | °C
As of 1:50 PM on Saturday 20 Dec 2014 (Local Time) from EGYD Reporting Station
Broken Clouds Broken Clouds  
Wind Chill: 39°   Ceiling: 2900
Heat Index: 46°   Visibility: 6mi
Dew Point: 36°   Wind: 18mph
Humidity: 66%   Direction: 290°WNW
Pressure: 30.21"   Gusts: NA
Location:  53.03°N, 0.5°W
Report Text: EGYD 201350Z AUTO 29016KT 9999 // BKN029/// 08/02 Q1023
Loading
Personal Weather Stations






























Interactive Weather Map New forecast layout! Learn more

10-Day Weather Forecast

Advertisements
Track Severe Weather on mobile